Sines, Portugal

9:59 PM WEST on August 03, 2015 (GMT +0100)
Sines - ZIL2 | | Change Station
CLOSE
Current Station
Personal Weather Station
Location: Sines, SET�BAL
Elevation: 167 ft
Nearby Weather Stations

Elev 167 ft 37.96 °N, 8.85 °W | Updated 6 minutes ago

Scattered Clouds
Scattered Clouds
66.9 °F
Feels Like 66.9 °F
N
9.0
Wind Variable Wind from NNW
Gusts 19.0 mph

Today
High -- | Low -- °F
--% Chance of Precip.
Yesterday
High -- | Low -- °F
Precip. -- in
6:39 AM 8:42 PM
Waning Gibbous, 84% visible
Pressure 30.04 in
Visibility 6.2 miles
Clouds Scattered Clouds 1500 ft
Dew Point 64 °F
Humidity 90%
Rainfall 0.00 in
Snow Depth Not available.
UV 0 out of 12
Pollen Not available.
Air Quality Not available.
Flu Activity Not available.
METAR LPPT 032030Z 32009KT 290V360 9999 SCT015 22/18 Q1017

More Conditions Fewer Conditions

Pressure 30.04 in
Visibility 6.2 miles
Clouds Scattered Clouds 1500 ft
Dew Point 64 °F
Humidity 90%
Rainfall 0.00 in
Snow Depth Not available.
UV 0 out of 12
Pollen Not available.
Air Quality Not available.
Flu Activity Not available.
METAR LPPT 032030Z 32009KT 290V360 9999 SCT015 22/18 Q1017

More Conditions Fewer Conditions

10-Day Weather Forecast

×

Almanac

Astronomy

Aug. 03, 2015 Rise Set
Actual Time
Civil Twilight
Nautical Twilight
Astronomical Twilight
Moon
Length of Visible Light
Length of Day
Tomorrow will be .
, % of the Moon is Illuminated

Today's Extremes

Country Highs Country Lows

Community

WunderPhotos

Upload Photos

1,843,749 photos uploaded!

WunderBlogs® & News

Nearby

Air Quality

  Air Quality AQ Index Pollutant
Not available.

Snow Depth

Station Depth Elevation

Earthquake Activity

City Distance Mag. Time & Date
Minimum magnitude displayed is 2.5.

Coastal Water Temperatures

Place Temperature

Stations

Nearby Weather Stations

Station Location Temp. Windchill Dew Point Humidity Wind Precip. Elev Updated Type